createdAt,value
2023-03-20T00:00:31.185Z,12.75
2023-03-20T00:01:51.583Z,12.35
2023-03-20T00:03:12.424Z,13.02
2023-03-20T00:04:33.075Z,11.07
2023-03-20T00:05:53.830Z,11.77
2023-03-20T00:07:14.438Z,13.02
2023-03-20T00:08:35.279Z,10.95
2023-03-20T00:09:55.803Z,11.38
2023-03-20T00:11:28.568Z,10.45
2023-03-20T00:12:49.469Z,11.10
2023-03-20T00:14:11.181Z,9.90
2023-03-20T00:15:32.982Z,9.75
2023-03-20T00:16:53.602Z,10.05
2023-03-20T00:18:15.957Z,10.07
2023-03-20T00:19:36.555Z,10.85
2023-03-20T00:20:57.043Z,9.38
2023-03-20T00:22:17.770Z,9.10
2023-03-20T00:23:38.392Z,9.40
2023-03-20T00:24:58.984Z,9.07
2023-03-20T00:26:19.745Z,9.02
2023-03-20T00:27:41.662Z,9.90
2023-03-20T00:29:03.032Z,8.85
2023-03-20T00:31:48.242Z,8.18
2023-03-20T00:33:10.481Z,8.98
2023-03-20T00:34:31.054Z,7.93
2023-03-20T00:35:51.926Z,9.82
2023-03-20T00:37:12.691Z,7.82
2023-03-20T00:38:33.407Z,9.43
2023-03-20T00:39:53.991Z,9.70
2023-03-20T00:41:23.892Z,9.02
2023-03-20T00:42:48.695Z,8.90
2023-03-20T00:44:18.994Z,8.57
2023-03-20T00:45:39.467Z,8.98
2023-03-20T00:47:01.655Z,9.30
2023-03-20T00:48:22.361Z,9.10
2023-03-20T00:49:43.171Z,10.00
2023-03-20T00:51:03.459Z,10.60
2023-03-20T00:52:27.420Z,9.88
2023-03-20T00:53:47.925Z,9.73
2023-03-20T00:55:09.232Z,10.80
2023-03-20T00:56:33.402Z,10.00
2023-03-20T00:57:56.481Z,10.70
2023-03-20T00:59:18.880Z,11.10
2023-03-20T01:00:40.770Z,10.05
2023-03-20T01:02:02.007Z,11.23
2023-03-20T01:03:25.508Z,10.85
2023-03-20T01:04:46.043Z,11.57
2023-03-20T01:06:06.935Z,11.02
2023-03-20T01:07:27.883Z,12.52
2023-03-20T01:08:48.271Z,12.13
2023-03-20T01:10:10.692Z,10.38
2023-03-20T01:11:31.251Z,10.73
2023-03-20T01:12:51.976Z,10.38
2023-03-20T01:14:15.417Z,10.55
2023-03-20T01:15:36.450Z,11.20
2023-03-20T01:16:57.168Z,10.27
2023-03-20T01:18:18.687Z,10.85
2023-03-20T01:19:39.044Z,10.35
2023-03-20T01:20:59.489Z,10.75
2023-03-20T01:22:20.322Z,10.07
2023-03-20T01:23:40.853Z,9.98
2023-03-20T01:25:01.664Z,11.05
2023-03-20T01:26:34.300Z,11.13
2023-03-20T01:27:55.464Z,11.82
2023-03-20T01:29:20.488Z,11.52
2023-03-20T01:30:41.070Z,11.77
2023-03-20T01:32:01.589Z,11.00
2023-03-20T01:33:23.895Z,12.10
2023-03-20T01:34:44.951Z,11.68
2023-03-20T01:36:06.317Z,10.98
2023-03-20T01:37:27.931Z,12.07
2023-03-20T01:38:50.197Z,10.98
2023-03-20T01:40:19.886Z,11.35
2023-03-20T01:41:40.183Z,12.48
2023-03-20T01:43:01.330Z,11.47
2023-03-20T01:44:25.426Z,11.05
2023-03-20T01:45:57.482Z,13.05
2023-03-20T01:47:19.442Z,11.60
2023-03-20T01:48:56.523Z,12.13
2023-03-20T01:50:26.351Z,11.88
2023-03-20T01:51:47.345Z,12.27
2023-03-20T01:53:12.511Z,12.07
2023-03-20T01:54:34.580Z,12.18
2023-03-20T01:55:57.123Z,12.73
2023-03-20T01:57:19.875Z,12.25
2023-03-20T01:58:45.045Z,12.20
2023-03-20T02:00:10.685Z,13.02
2023-03-20T02:01:31.377Z,12.38
2023-03-20T02:02:52.223Z,11.55
2023-03-20T02:04:14.672Z,13.82
2023-03-20T02:05:36.148Z,12.75
2023-03-20T02:06:57.046Z,12.98
2023-03-20T02:08:24.344Z,13.45
2023-03-20T02:09:44.606Z,13.27
2023-03-20T02:11:06.209Z,12.63
2023-03-20T02:12:26.942Z,14.35
2023-03-20T02:13:47.980Z,13.55
2023-03-20T02:15:11.916Z,13.13
2023-03-20T02:16:32.623Z,13.52
2023-03-20T02:17:53.212Z,13.50
2023-03-20T02:19:19.551Z,13.27
2023-03-20T02:20:50.674Z,12.93
2023-03-20T02:22:41.039Z,12.70
2023-03-20T02:24:24.697Z,12.63
2023-03-20T02:26:08.727Z,13.63
2023-03-20T02:27:34.634Z,13.93
2023-03-20T02:29:30.824Z,13.00
2023-03-20T02:31:06.811Z,13.20
2023-03-20T02:33:01.400Z,12.07
2023-03-20T02:34:47.235Z,12.80
2023-03-20T02:36:44.559Z,14.70
2023-03-20T02:38:35.711Z,14.23
2023-03-20T02:40:09.585Z,13.90
2023-03-20T02:41:32.571Z,15.52
2023-03-20T02:42:58.501Z,13.68
2023-03-20T02:44:23.106Z,14.60
2023-03-20T02:45:49.654Z,14.65
2023-03-20T02:47:14.527Z,15.65
2023-03-20T02:48:45.345Z,14.85
2023-03-20T02:50:13.846Z,15.47
2023-03-20T02:51:38.048Z,15.40
2023-03-20T02:53:03.087Z,15.10
2023-03-20T02:54:30.121Z,14.88
2023-03-20T02:55:55.242Z,15.68
2023-03-20T02:57:18.169Z,15.27
2023-03-20T02:58:42.062Z,15.57
2023-03-20T03:00:05.939Z,15.18
2023-03-20T03:01:30.729Z,15.32
2023-03-20T03:02:57.018Z,16.63
2023-03-20T03:04:19.966Z,16.08
2023-03-20T03:05:44.196Z,16.65
2023-03-20T03:07:06.345Z,17.13
2023-03-20T03:08:30.490Z,14.90
2023-03-20T03:09:57.038Z,15.27
2023-03-20T03:11:17.767Z,16.13
2023-03-20T03:12:40.702Z,17.73
2023-03-20T03:14:02.218Z,16.00
2023-03-20T03:15:26.021Z,16.35
2023-03-20T03:16:46.766Z,16.00
2023-03-20T03:18:11.811Z,16.77
2023-03-20T03:19:32.692Z,16.70
2023-03-20T03:20:57.365Z,15.55
2023-03-20T03:22:18.498Z,16.58
2023-03-20T03:23:42.034Z,15.45
2023-03-20T03:25:04.716Z,17.60
2023-03-20T03:26:27.551Z,15.95
2023-03-20T03:27:50.793Z,16.27
2023-03-20T03:29:13.875Z,15.30
2023-03-20T03:30:37.176Z,16.98
2023-03-20T03:31:57.627Z,15.27
2023-03-20T03:33:21.968Z,15.75
2023-03-20T03:34:42.407Z,16.00
2023-03-20T03:36:10.931Z,16.02
2023-03-20T03:37:39.897Z,16.20
2023-03-20T03:39:03.354Z,16.10
2023-03-20T03:40:31.899Z,15.68
2023-03-20T03:41:55.752Z,16.88
2023-03-20T03:43:18.939Z,16.92
2023-03-20T03:44:43.930Z,16.63
2023-03-20T03:46:07.480Z,16.88
2023-03-20T03:47:32.057Z,16.27
2023-03-20T03:48:57.011Z,17.67
2023-03-20T03:50:20.275Z,16.05
2023-03-20T03:51:43.106Z,17.10
2023-03-20T03:53:08.221Z,17.27
2023-03-20T03:54:32.697Z,18.10
2023-03-20T03:55:57.313Z,17.17
2023-03-20T03:57:21.848Z,18.42
2023-03-20T03:58:43.684Z,16.63
2023-03-20T04:00:06.031Z,17.88
2023-03-20T04:01:27.007Z,17.98
2023-03-20T04:02:50.280Z,18.58
2023-03-20T04:04:12.737Z,18.15
2023-03-20T04:05:36.554Z,17.95
2023-03-20T04:06:57.474Z,19.63
2023-03-20T04:08:20.235Z,17.48
2023-03-20T04:09:40.974Z,17.98
2023-03-20T04:11:03.002Z,17.70
2023-03-20T04:12:34.244Z,17.42
2023-03-20T04:13:57.654Z,17.63
2023-03-20T04:15:18.149Z,17.33
2023-03-20T04:16:39.051Z,17.58
2023-03-20T04:17:59.876Z,16.98
2023-03-20T04:19:20.454Z,19.92
2023-03-20T04:20:41.156Z,16.60
2023-03-20T04:22:01.640Z,16.70
2023-03-20T04:23:22.055Z,17.55
2023-03-20T04:24:42.710Z,17.00
2023-03-20T04:26:05.784Z,16.40
2023-03-20T04:27:26.469Z,17.35
2023-03-20T04:28:46.966Z,17.07
2023-03-20T04:30:08.685Z,16.05
2023-03-20T04:31:29.327Z,17.13
2023-03-20T04:32:49.997Z,16.38
2023-03-20T04:34:10.443Z,16.77
2023-03-20T04:35:31.143Z,17.58
2023-03-20T04:36:51.854Z,16.92
2023-03-20T04:38:11.999Z,17.63
2023-03-20T04:39:32.772Z,17.02
2023-03-20T04:40:55.482Z,16.17
2023-03-20T04:42:17.537Z,15.63
2023-03-20T04:43:38.001Z,16.45
2023-03-20T04:44:58.409Z,17.20
2023-03-20T04:46:19.099Z,15.57
2023-03-20T04:47:39.844Z,17.48
2023-03-20T04:49:00.540Z,15.90
2023-03-20T04:50:21.531Z,14.65
2023-03-20T04:51:42.178Z,16.10
2023-03-20T04:53:02.689Z,16.27
2023-03-20T04:54:23.374Z,17.43
2023-03-20T04:55:44.574Z,15.70
2023-03-20T04:57:05.185Z,16.65
2023-03-20T04:58:27.202Z,16.48
2023-03-20T04:59:47.747Z,16.35
2023-03-20T05:01:08.526Z,15.43
2023-03-20T05:02:29.198Z,17.00
2023-03-20T05:03:49.919Z,15.85
2023-03-20T05:05:10.831Z,14.65
2023-03-20T05:06:31.343Z,14.93
2023-03-20T05:07:52.010Z,16.60
2023-03-20T05:09:12.527Z,15.43
2023-03-20T05:10:33.361Z,17.07
2023-03-20T05:11:53.866Z,15.45
2023-03-20T05:13:14.560Z,15.07
2023-03-20T05:14:36.469Z,16.08
2023-03-20T05:17:16.785Z,15.80
2023-03-20T05:18:37.552Z,17.15
2023-03-20T05:19:58.197Z,15.80
2023-03-20T05:21:19.047Z,16.25
2023-03-20T05:22:39.626Z,16.98
2023-03-20T05:24:00.300Z,15.23
2023-03-20T05:25:20.871Z,16.38
2023-03-20T05:26:41.410Z,17.40
2023-03-20T05:28:02.103Z,17.25
2023-03-20T05:29:22.994Z,16.52
2023-03-20T05:30:44.951Z,15.80
2023-03-20T05:32:06.286Z,16.33
2023-03-20T05:33:26.638Z,15.20
2023-03-20T05:34:47.244Z,16.37
2023-03-20T05:36:09.062Z,16.00
2023-03-20T05:37:29.636Z,15.35
2023-03-20T05:38:50.103Z,16.42
2023-03-20T05:40:12.696Z,15.68
2023-03-20T05:41:33.592Z,15.48
2023-03-20T05:42:54.497Z,15.38
2023-03-20T05:44:15.188Z,17.30
2023-03-20T05:45:36.018Z,14.57
2023-03-20T05:46:58.813Z,15.15
2023-03-20T05:48:19.203Z,14.40
2023-03-20T05:49:39.551Z,16.15
2023-03-20T05:51:00.140Z,15.77
2023-03-20T05:52:20.953Z,13.88
2023-03-20T05:53:41.567Z,15.45
2023-03-20T05:55:02.205Z,14.17
2023-03-20T05:56:22.890Z,14.93
2023-03-20T05:57:43.621Z,14.20
2023-03-20T05:59:04.304Z,14.38
2023-03-20T06:00:24.713Z,14.23
2023-03-20T06:01:45.723Z,14.23
2023-03-20T06:03:07.537Z,14.82
2023-03-20T06:04:28.075Z,14.32
2023-03-20T06:05:48.454Z,14.38
2023-03-20T06:07:08.947Z,14.43
2023-03-20T06:08:29.577Z,14.15
2023-03-20T06:09:49.849Z,14.38
2023-03-20T06:11:10.654Z,12.95
2023-03-20T06:12:31.009Z,13.87
2023-03-20T06:13:51.714Z,12.82
2023-03-20T06:15:12.215Z,13.05
2023-03-20T06:16:32.655Z,14.45
2023-03-20T06:17:53.250Z,13.98
2023-03-20T06:19:15.370Z,13.88
2023-03-20T06:20:35.758Z,13.00
2023-03-20T06:21:56.373Z,14.30
2023-03-20T06:23:17.017Z,13.23
2023-03-20T06:24:37.624Z,13.43
2023-03-20T06:25:58.119Z,13.05
2023-03-20T06:27:18.731Z,12.57
2023-03-20T06:28:39.442Z,12.10
2023-03-20T06:30:00.262Z,13.30
2023-03-20T06:31:21.026Z,12.73
2023-03-20T06:32:41.522Z,11.65
2023-03-20T06:34:02.113Z,13.07
2023-03-20T06:35:24.035Z,11.88
2023-03-20T06:38:05.904Z,10.55
2023-03-20T06:39:26.881Z,12.23
2023-03-20T06:40:47.422Z,11.90
2023-03-20T06:42:08.067Z,12.23
2023-03-20T06:43:28.615Z,10.88
2023-03-20T06:44:49.159Z,12.07
2023-03-20T06:46:09.885Z,10.80
2023-03-20T06:47:30.609Z,10.82
2023-03-20T06:48:51.244Z,11.07
2023-03-20T06:50:12.037Z,10.70
2023-03-20T06:51:33.833Z,11.02
2023-03-20T06:52:54.324Z,10.63
2023-03-20T06:54:14.911Z,9.68
2023-03-20T06:55:39.260Z,10.13
2023-03-20T06:56:59.760Z,10.55
2023-03-20T06:58:20.461Z,9.35
2023-03-20T06:59:40.867Z,10.80
2023-03-20T07:01:01.372Z,10.05
2023-03-20T07:02:22.121Z,9.88
2023-03-20T07:03:43.228Z,10.02
2023-03-20T07:05:03.877Z,9.43
2023-03-20T07:06:24.839Z,8.82
2023-03-20T07:07:46.710Z,8.90
2023-03-20T07:09:07.487Z,8.15
2023-03-20T07:10:28.505Z,9.05
2023-03-20T07:11:48.763Z,10.07
2023-03-20T07:13:09.532Z,8.35
2023-03-20T07:14:29.958Z,7.90
2023-03-20T07:16:03.285Z,9.35
2023-03-20T07:17:27.701Z,7.97
2023-03-20T07:18:48.152Z,9.15
2023-03-20T07:20:10.049Z,9.10
2023-03-20T07:21:30.614Z,8.85
2023-03-20T07:22:52.236Z,9.38
2023-03-20T07:24:12.836Z,9.25
2023-03-20T07:25:42.118Z,9.00
2023-03-20T07:27:03.110Z,8.50
2023-03-20T07:28:23.883Z,8.03
2023-03-20T07:29:45.137Z,7.78
2023-03-20T07:31:05.988Z,8.90
2023-03-20T07:32:26.439Z,9.00
2023-03-20T07:33:47.273Z,8.40
2023-03-20T07:35:08.382Z,8.88
2023-03-20T07:36:28.798Z,8.40
2023-03-20T07:37:49.353Z,8.75
2023-03-20T07:39:11.445Z,8.45
2023-03-20T07:40:31.739Z,7.75
2023-03-20T07:41:52.643Z,8.48
2023-03-20T07:43:13.202Z,8.77
2023-03-20T07:44:33.932Z,8.40
2023-03-20T07:45:54.638Z,8.60
2023-03-20T07:47:15.191Z,8.67
2023-03-20T07:48:36.066Z,7.32
2023-03-20T07:49:56.502Z,8.15
2023-03-20T07:51:17.344Z,9.20
2023-03-20T07:52:38.074Z,8.00
2023-03-20T07:53:59.121Z,7.90
2023-03-20T07:55:21.270Z,8.85
2023-03-20T07:56:42.074Z,9.50
2023-03-20T07:58:02.779Z,9.68
2023-03-20T07:59:23.530Z,8.75
2023-03-20T08:00:43.867Z,8.35
2023-03-20T08:02:04.249Z,9.00
2023-03-20T08:03:24.871Z,8.70
2023-03-20T08:04:45.887Z,8.38
2023-03-20T08:06:07.974Z,8.60
2023-03-20T08:07:28.841Z,8.98
2023-03-20T08:08:49.576Z,9.63
2023-03-20T08:10:10.889Z,8.48
2023-03-20T08:11:34.434Z,9.63
2023-03-20T08:12:55.197Z,9.23
2023-03-20T08:14:16.011Z,9.10
2023-03-20T08:15:36.783Z,8.30
2023-03-20T08:17:13.294Z,10.18
2023-03-20T08:18:35.268Z,10.25
2023-03-20T08:19:55.933Z,10.13
2023-03-20T08:21:16.241Z,11.10
2023-03-20T08:22:36.985Z,9.90
2023-03-20T08:23:57.868Z,10.43
2023-03-20T08:25:18.881Z,11.13
2023-03-20T08:26:41.361Z,10.48
2023-03-20T08:28:02.275Z,11.05
2023-03-20T08:29:23.538Z,10.95
2023-03-20T08:30:44.203Z,11.48
2023-03-20T08:32:05.816Z,12.55
2023-03-20T08:33:26.340Z,10.82
2023-03-20T08:34:49.871Z,12.18
2023-03-20T08:36:10.402Z,12.65
2023-03-20T08:37:31.061Z,12.13
2023-03-20T08:38:51.630Z,12.75
2023-03-20T08:40:12.968Z,10.57
2023-03-20T08:41:33.520Z,11.93
2023-03-20T08:42:55.592Z,13.10
2023-03-20T08:44:16.067Z,13.20
2023-03-20T08:45:36.822Z,12.95
2023-03-20T08:46:58.034Z,14.82
2023-03-20T08:48:18.345Z,12.43
2023-03-20T08:49:39.005Z,12.60
2023-03-20T08:50:59.688Z,15.02
2023-03-20T08:52:20.169Z,15.10
2023-03-20T08:53:40.495Z,15.15
2023-03-20T08:55:01.193Z,14.68
2023-03-20T08:56:21.748Z,13.93
2023-03-20T08:57:42.432Z,15.40
2023-03-20T08:59:04.503Z,17.30
2023-03-20T09:00:25.217Z,14.73
2023-03-20T09:01:50.117Z,14.80
2023-03-20T09:03:12.726Z,14.15
2023-03-20T09:04:33.168Z,13.98
2023-03-20T09:05:53.836Z,15.40
2023-03-20T09:07:14.299Z,16.40
2023-03-20T09:08:35.189Z,15.85
2023-03-20T09:09:55.828Z,14.30
2023-03-20T09:11:16.417Z,14.85
2023-03-20T09:12:37.320Z,14.77
2023-03-20T09:13:57.916Z,16.10
2023-03-20T09:15:19.853Z,13.80
2023-03-20T09:16:40.347Z,16.67
2023-03-20T09:18:02.884Z,17.08
2023-03-20T09:19:24.624Z,17.67
2023-03-20T09:20:46.969Z,13.88
2023-03-20T09:22:07.331Z,17.30
2023-03-20T09:23:27.850Z,16.50
2023-03-20T09:24:48.467Z,19.30
2023-03-20T09:26:08.766Z,17.27
2023-03-20T09:27:29.329Z,18.40
2023-03-20T09:28:49.734Z,17.63
2023-03-20T09:30:11.635Z,18.50
2023-03-20T09:31:33.736Z,20.27
2023-03-20T09:32:54.296Z,20.65
2023-03-20T09:34:15.360Z,20.40
2023-03-20T09:35:35.604Z,22.10
2023-03-20T09:36:56.119Z,22.92
2023-03-20T09:38:16.620Z,23.67
2023-03-20T09:39:37.371Z,21.48
2023-03-20T09:40:59.232Z,21.40
2023-03-20T09:44:02.476Z,20.25
2023-03-20T09:45:31.918Z,23.35
2023-03-20T09:47:16.484Z,22.85
2023-03-20T09:48:44.967Z,23.10
2023-03-20T09:50:17.491Z,23.08
2023-03-20T09:51:43.077Z,23.45
2023-03-20T09:53:06.219Z,24.20
2023-03-20T09:54:28.944Z,24.25
2023-03-20T09:55:50.261Z,22.52
2023-03-20T09:57:18.112Z,24.80
2023-03-20T09:58:39.822Z,22.88
2023-03-20T10:01:24.797Z,23.75
2023-03-20T10:02:50.519Z,21.80
2023-03-20T10:04:12.017Z,21.70
2023-03-20T10:05:37.157Z,22.83
2023-03-20T10:06:57.754Z,24.13
2023-03-20T10:08:21.498Z,23.70
2023-03-20T10:09:42.881Z,22.55
2023-03-20T10:11:11.046Z,21.63
2023-03-20T10:12:47.407Z,23.60
2023-03-20T10:14:22.098Z,22.40
2023-03-20T10:15:49.100Z,24.05
2023-03-20T10:17:25.272Z,24.52
2023-03-20T10:18:54.369Z,24.08
2023-03-20T10:20:25.220Z,23.55
2023-03-20T10:21:47.093Z,25.45
2023-03-20T10:23:13.812Z,25.33
2023-03-20T10:24:36.257Z,25.73
2023-03-20T10:26:00.177Z,27.25
2023-03-20T10:27:29.269Z,26.13
2023-03-20T10:28:53.317Z,22.60
2023-03-20T10:30:25.374Z,26.02
2023-03-20T10:31:52.198Z,26.88
2023-03-20T10:33:30.963Z,25.35
2023-03-20T10:35:00.196Z,28.50
2023-03-20T10:36:33.526Z,26.70
2023-03-20T10:38:05.271Z,24.05
2023-03-20T10:40:51.227Z,23.55
2023-03-20T10:42:16.567Z,25.52
2023-03-20T10:43:41.652Z,27.85
2023-03-20T10:45:07.500Z,25.45
2023-03-20T10:46:31.534Z,24.13
2023-03-20T10:47:52.832Z,25.50
2023-03-20T10:49:16.560Z,23.38
2023-03-20T10:50:41.921Z,25.40
2023-03-20T10:52:04.855Z,24.88
2023-03-20T10:53:32.678Z,22.98
2023-03-20T10:54:56.657Z,22.48
2023-03-20T10:56:23.370Z,21.45
2023-03-20T10:57:48.050Z,23.27
2023-03-20T10:59:18.213Z,22.45
2023-03-20T11:00:39.775Z,23.42
2023-03-20T11:02:00.340Z,24.00
2023-03-20T11:03:22.843Z,22.58
2023-03-20T11:04:43.818Z,24.90
2023-03-20T11:06:13.228Z,27.42
2023-03-20T11:07:35.650Z,22.30
2023-03-20T11:08:56.280Z,25.02
2023-03-20T11:10:17.001Z,24.50
2023-03-20T11:11:39.613Z,23.02
2023-03-20T11:13:13.852Z,25.65
2023-03-20T11:14:35.893Z,24.52
2023-03-20T11:15:56.538Z,22.35
2023-03-20T11:17:17.159Z,21.40
2023-03-20T11:18:37.661Z,21.23
2023-03-20T11:20:04.077Z,21.92
2023-03-20T11:21:28.247Z,21.85
2023-03-20T11:22:59.230Z,22.73
2023-03-20T11:24:27.224Z,21.15
2023-03-20T11:25:50.793Z,22.40
2023-03-20T11:27:13.294Z,20.88
2023-03-20T11:28:34.954Z,21.92
2023-03-20T11:29:56.144Z,22.25
2023-03-20T11:32:41.070Z,21.05
2023-03-20T11:34:12.166Z,20.58
2023-03-20T11:35:32.945Z,20.35
2023-03-20T11:37:09.793Z,20.27
2023-03-20T11:38:31.543Z,20.98
2023-03-20T11:39:59.552Z,22.02
2023-03-20T11:41:24.077Z,20.42
2023-03-20T11:42:53.338Z,21.90
2023-03-20T11:44:27.540Z,21.65
2023-03-20T11:45:49.712Z,22.58
2023-03-20T11:47:14.166Z,22.80
2023-03-20T11:48:37.880Z,22.67
2023-03-20T11:49:59.736Z,21.13
2023-03-20T11:51:22.081Z,21.10
2023-03-20T11:52:44.147Z,22.63
2023-03-20T11:54:06.813Z,23.52
2023-03-20T11:55:29.349Z,26.10
2023-03-20T11:56:55.034Z,24.67
2023-03-20T11:58:16.901Z,28.50
2023-03-20T11:59:37.786Z,26.35
2023-03-20T12:00:58.504Z,24.93
2023-03-20T12:02:21.029Z,27.20
2023-03-20T12:03:44.789Z,29.05
2023-03-20T12:05:28.576Z,25.67
2023-03-20T12:06:53.875Z,26.50
2023-03-20T12:08:19.406Z,28.15
2023-03-20T12:09:42.570Z,23.52
2023-03-20T12:11:08.550Z,22.90
2023-03-20T12:12:36.074Z,25.15
2023-03-20T12:14:00.256Z,27.17
2023-03-20T12:15:24.245Z,23.65
2023-03-20T12:16:45.124Z,24.67
2023-03-20T12:18:09.749Z,25.55
2023-03-20T12:19:30.782Z,24.25
2023-03-20T12:20:59.710Z,26.40
2023-03-20T12:22:24.159Z,24.67
2023-03-20T12:23:47.743Z,25.55
2023-03-20T12:25:16.489Z,27.48
2023-03-20T12:26:46.307Z,32.10
2023-03-20T12:28:13.079Z,29.85
2023-03-20T12:29:40.571Z,28.85
2023-03-20T12:31:06.438Z,26.23
2023-03-20T12:32:31.611Z,27.40
2023-03-20T12:33:57.147Z,29.63
2023-03-20T12:35:20.543Z,25.85
2023-03-20T12:36:43.106Z,26.98
2023-03-20T12:38:03.791Z,25.83
2023-03-20T12:39:27.274Z,26.50
2023-03-20T12:40:51.225Z,23.70
2023-03-20T12:42:18.904Z,29.63
2023-03-20T12:43:59.636Z,27.80
2023-03-20T12:45:22.076Z,28.45
2023-03-20T12:46:45.313Z,26.52
2023-03-20T12:48:14.881Z,27.08
2023-03-20T12:49:46.223Z,28.05
2023-03-20T12:51:13.618Z,28.75
2023-03-20T12:52:42.705Z,27.20
2023-03-20T12:54:14.981Z,30.60
2023-03-20T12:55:42.772Z,29.42
2023-03-20T12:57:08.541Z,31.10
2023-03-20T12:58:36.218Z,27.75
2023-03-20T13:00:19.803Z,29.55
2023-03-20T13:01:46.527Z,30.65
2023-03-20T13:03:17.028Z,30.65
2023-03-20T13:04:50.064Z,33.33
2023-03-20T13:06:14.257Z,28.85
2023-03-20T13:07:43.216Z,33.13
2023-03-20T13:09:19.925Z,32.35
2023-03-20T13:10:54.732Z,28.30
2023-03-20T13:12:21.102Z,30.38
2023-03-20T13:13:46.088Z,27.42
2023-03-20T13:15:21.841Z,31.58
2023-03-20T13:16:48.905Z,29.35
2023-03-20T13:18:15.480Z,27.08
2023-03-20T13:19:39.436Z,27.10
2023-03-20T13:21:02.553Z,26.08
2023-03-20T13:22:29.281Z,27.30
2023-03-20T13:23:54.486Z,24.25
2023-03-20T13:25:28.089Z,28.83
2023-03-20T13:26:54.485Z,30.30
2023-03-20T13:28:19.360Z,27.45
2023-03-20T13:29:46.183Z,28.88
2023-03-20T13:31:18.197Z,28.33
2023-03-20T13:34:07.071Z,30.17
2023-03-20T13:35:37.181Z,29.45
2023-03-20T13:37:22.476Z,26.65
2023-03-20T13:38:46.389Z,23.75
2023-03-20T13:40:14.803Z,25.88
2023-03-20T13:41:35.742Z,29.92
2023-03-20T13:43:04.374Z,30.80
2023-03-20T13:44:28.104Z,30.20
2023-03-20T13:45:50.830Z,32.92
2023-03-20T13:47:13.500Z,27.27
2023-03-20T13:48:36.245Z,28.23
2023-03-20T13:49:59.976Z,31.67
2023-03-20T13:51:27.235Z,27.95
2023-03-20T13:52:52.904Z,32.17
2023-03-20T13:54:21.101Z,34.85
2023-03-20T13:55:47.759Z,32.47
2023-03-20T13:57:17.762Z,28.48
2023-03-20T13:58:56.249Z,32.47
2023-03-20T14:00:25.136Z,35.05
2023-03-20T14:01:50.578Z,34.67
2023-03-20T14:03:18.712Z,37.63
2023-03-20T14:04:39.554Z,36.67
2023-03-20T14:05:59.983Z,39.60
2023-03-20T14:07:32.243Z,39.50
2023-03-20T14:08:54.162Z,40.60
2023-03-20T14:10:33.726Z,38.08
2023-03-20T14:11:54.707Z,37.38
2023-03-20T14:13:17.823Z,44.78
2023-03-20T14:14:43.845Z,46.65
2023-03-20T14:16:08.358Z,42.25
2023-03-20T14:17:30.190Z,46.22
2023-03-20T14:20:16.097Z,39.38
2023-03-20T14:21:36.958Z,47.40
2023-03-20T14:22:57.817Z,42.97
2023-03-20T14:24:19.058Z,38.85
2023-03-20T14:25:41.422Z,47.08
2023-03-20T14:27:02.123Z,51.65
2023-03-20T14:28:26.384Z,44.80
2023-03-20T14:29:48.281Z,50.15
2023-03-20T14:31:13.984Z,51.47
2023-03-20T14:32:35.481Z,51.40
2023-03-20T14:34:09.144Z,48.85
2023-03-20T14:35:29.564Z,42.97
2023-03-20T14:36:57.466Z,43.53
2023-03-20T14:38:24.209Z,44.88
2023-03-20T14:39:49.674Z,46.17
2023-03-20T14:41:14.871Z,42.20
2023-03-20T14:42:47.681Z,50.38
2023-03-20T14:44:22.137Z,42.92
2023-03-20T14:45:45.113Z,47.42
2023-03-20T14:47:15.981Z,48.13
2023-03-20T14:48:45.113Z,47.38
2023-03-20T14:50:14.892Z,47.78
2023-03-20T14:51:42.190Z,43.80
2023-03-20T14:53:12.765Z,47.40
2023-03-20T14:54:34.197Z,48.85
2023-03-20T14:56:07.437Z,52.63
2023-03-20T14:57:48.729Z,41.50
2023-03-20T14:59:17.195Z,48.22
2023-03-20T15:00:46.921Z,51.03
2023-03-20T15:02:27.754Z,48.63
2023-03-20T15:03:52.595Z,48.45
2023-03-20T15:05:24.807Z,44.72
2023-03-20T15:06:49.603Z,49.08
2023-03-20T15:08:19.375Z,45.88
2023-03-20T15:09:45.990Z,48.25
2023-03-20T15:11:16.143Z,46.50
2023-03-20T15:12:41.170Z,47.63
2023-03-20T15:14:04.882Z,44.83
2023-03-20T15:15:28.549Z,41.42
2023-03-20T15:17:03.352Z,47.15
2023-03-20T15:18:28.849Z,45.45
2023-03-20T15:20:00.944Z,45.63
2023-03-20T15:21:28.809Z,46.25
2023-03-20T15:22:53.268Z,45.53
2023-03-20T15:24:21.325Z,45.17
2023-03-20T15:25:44.293Z,45.40
2023-03-20T15:27:08.120Z,47.58
2023-03-20T15:28:31.225Z,47.10
2023-03-20T15:29:55.693Z,51.70
2023-03-20T15:31:23.586Z,52.28
2023-03-20T15:32:49.309Z,46.50
2023-03-20T15:34:22.062Z,50.30
2023-03-20T15:35:42.966Z,46.70
2023-03-20T15:37:05.953Z,52.03
2023-03-20T15:38:37.791Z,53.25
2023-03-20T15:39:59.739Z,42.25
2023-03-20T15:41:32.453Z,41.45
2023-03-20T15:42:58.357Z,40.78
2023-03-20T15:44:24.765Z,47.13
2023-03-20T15:46:18.463Z,48.13
2023-03-20T15:47:46.847Z,46.20
2023-03-20T15:49:07.974Z,41.83
2023-03-20T15:50:38.700Z,40.72
2023-03-20T15:52:05.790Z,38.28
2023-03-20T15:53:34.895Z,40.03
2023-03-20T15:55:01.969Z,44.40
2023-03-20T15:56:27.152Z,31.67
2023-03-20T15:57:50.279Z,35.47
2023-03-20T15:59:23.904Z,39.10
2023-03-20T16:00:49.570Z,35.92
2023-03-20T16:02:18.099Z,32.13
2023-03-20T16:03:43.956Z,35.22
2023-03-20T16:05:06.580Z,39.00
2023-03-20T16:06:29.193Z,39.90
2023-03-20T16:09:15.814Z,32.97
2023-03-20T16:10:37.606Z,29.45
2023-03-20T16:12:01.509Z,24.33
2023-03-20T16:13:32.817Z,23.00
2023-03-20T16:14:55.085Z,25.15
2023-03-20T16:16:19.169Z,16.67
2023-03-20T16:17:42.240Z,15.90
2023-03-20T16:19:05.333Z,16.60
2023-03-20T16:20:28.794Z,16.25
2023-03-20T16:21:49.398Z,15.40
2023-03-20T16:23:35.416Z,14.93
2023-03-20T16:25:01.453Z,11.20
2023-03-20T16:26:28.038Z,10.50
2023-03-20T16:27:53.500Z,8.88
2023-03-20T16:29:18.123Z,9.32
2023-03-20T16:30:39.973Z,7.45
2023-03-20T16:32:08.014Z,5.53
2023-03-20T16:33:31.089Z,6.30
2023-03-20T16:34:59.344Z,5.07
2023-03-20T16:36:25.764Z,4.07
2023-03-20T16:37:54.050Z,5.60
2023-03-20T16:39:20.556Z,5.95
2023-03-20T16:40:41.197Z,6.05
2023-03-20T16:42:20.988Z,5.95
2023-03-20T16:43:47.288Z,5.25
2023-03-20T16:45:25.198Z,5.47
2023-03-20T16:46:58.524Z,6.03
2023-03-20T16:48:31.207Z,6.28
2023-03-20T16:50:24.100Z,4.18
2023-03-20T16:51:45.094Z,4.53
2023-03-20T16:53:15.264Z,4.43
2023-03-20T16:54:30.698Z,5.55
2023-03-20T16:55:52.290Z,4.40
2023-03-20T16:57:16.298Z,4.95
2023-03-20T16:58:37.178Z,5.90
2023-03-20T17:00:02.610Z,5.05
2023-03-20T17:01:25.249Z,6.15
2023-03-20T17:02:50.333Z,5.90
2023-03-20T17:04:18.001Z,5.90
2023-03-20T17:05:47.556Z,6.88
2023-03-20T17:07:13.025Z,6.47
2023-03-20T17:08:36.608Z,5.68
2023-03-20T17:09:59.556Z,6.05
2023-03-20T17:11:23.261Z,6.50
2023-03-20T17:12:45.268Z,5.80
2023-03-20T17:14:05.711Z,6.82
2023-03-20T17:15:26.836Z,6.78
2023-03-20T17:16:47.645Z,6.68
2023-03-20T17:18:12.721Z,6.13
2023-03-20T17:19:33.358Z,6.72
2023-03-20T17:20:55.433Z,7.65
2023-03-20T17:22:18.272Z,7.63
2023-03-20T17:23:39.609Z,5.43
2023-03-20T17:25:03.037Z,7.65
2023-03-20T17:26:24.169Z,8.02
2023-03-20T17:27:45.675Z,8.93
2023-03-20T17:29:06.686Z,9.15
2023-03-20T17:30:27.608Z,9.77
2023-03-20T17:31:48.246Z,9.00
2023-03-20T17:33:12.513Z,10.18
2023-03-20T17:34:33.285Z,11.30
2023-03-20T17:35:55.704Z,10.73
2023-03-20T17:37:22.703Z,11.52
2023-03-20T17:38:43.348Z,10.95
2023-03-20T17:40:04.994Z,11.93
2023-03-20T17:41:26.903Z,10.27
2023-03-20T17:44:09.782Z,13.38
2023-03-20T17:45:31.257Z,13.07
2023-03-20T17:46:58.244Z,12.73
2023-03-20T17:48:21.031Z,10.65
2023-03-20T17:49:41.492Z,13.52
2023-03-20T17:51:05.666Z,10.55
2023-03-20T17:52:28.644Z,13.63
2023-03-20T17:53:49.212Z,13.30
2023-03-20T17:55:12.492Z,14.18
2023-03-20T17:56:33.679Z,14.93
2023-03-20T17:57:55.029Z,12.88
2023-03-20T17:59:15.804Z,10.80
2023-03-20T18:00:36.868Z,11.70
2023-03-20T18:01:57.838Z,10.98
2023-03-20T18:03:19.236Z,11.70
2023-03-20T18:06:00.507Z,13.98
2023-03-20T18:07:22.934Z,13.18
2023-03-20T18:08:43.840Z,12.35
2023-03-20T18:10:05.885Z,13.65
2023-03-20T18:11:27.057Z,10.88
2023-03-20T18:12:50.586Z,9.80
2023-03-20T18:14:11.340Z,10.98
2023-03-20T18:15:32.210Z,9.13
2023-03-20T18:16:52.671Z,10.80
2023-03-20T18:18:13.676Z,9.23
2023-03-20T18:19:34.902Z,10.07
2023-03-20T18:20:55.502Z,11.88
2023-03-20T18:22:16.323Z,10.70
2023-03-20T18:23:38.983Z,10.75
2023-03-20T18:25:00.276Z,9.50